createdAt,value
2018-02-10T00:01:51.993Z,0.40
2018-02-10T00:04:21.217Z,0.40
2018-02-10T00:06:49.701Z,0.40
2018-02-10T00:09:18.158Z,0.40
2018-02-10T00:11:46.692Z,0.40
2018-02-10T00:14:15.800Z,0.40
2018-02-10T00:16:44.266Z,0.50
2018-02-10T00:19:12.756Z,0.50
2018-02-10T00:21:41.213Z,0.40
2018-02-10T00:24:09.693Z,0.40
2018-02-10T00:26:38.213Z,0.40
2018-02-10T00:29:06.690Z,0.40
2018-02-10T00:31:35.174Z,0.40
2018-02-10T00:34:03.640Z,0.30
2018-02-10T00:36:32.134Z,0.40
2018-02-10T00:39:00.617Z,0.40
2018-02-10T00:41:29.080Z,0.40
2018-02-10T00:43:57.566Z,0.40
2018-02-10T00:46:26.026Z,0.30
2018-02-10T00:48:54.515Z,0.30
2018-02-10T00:51:22.998Z,0.30
2018-02-10T00:53:51.458Z,0.30
2018-02-10T00:56:19.944Z,0.20
2018-02-10T00:58:48.385Z,0.10
2018-02-10T01:01:17.660Z,-0.10
2018-02-10T01:03:46.152Z,-0.10
2018-02-10T01:06:14.621Z,-0.10
2018-02-10T01:08:43.114Z,-0.10
2018-02-10T01:11:11.574Z,-0.10
2018-02-10T01:13:40.853Z,0.00
2018-02-10T01:16:09.352Z,0.00
2018-02-10T01:18:37.805Z,0.00
2018-02-10T01:21:06.289Z,0.00
2018-02-10T01:23:34.731Z,0.10
2018-02-10T01:26:03.985Z,0.10
2018-02-10T01:28:32.482Z,0.10
2018-02-10T01:31:00.938Z,0.10
2018-02-10T01:33:29.430Z,0.10
2018-02-10T01:35:57.899Z,0.10
2018-02-10T01:38:26.391Z,0.20
2018-02-10T01:40:54.875Z,0.20
2018-02-10T01:43:23.329Z,0.20
2018-02-10T01:45:51.821Z,0.20
2018-02-10T01:48:20.280Z,0.20
2018-02-10T01:50:48.779Z,0.10
2018-02-10T01:53:17.269Z,0.10
2018-02-10T01:55:45.732Z,0.00
2018-02-10T01:58:14.224Z,0.00
2018-02-10T02:00:42.694Z,0.00
2018-02-10T02:03:11.163Z,0.10
2018-02-10T02:05:39.651Z,0.10
2018-02-10T02:08:08.138Z,0.10
2018-02-10T02:10:36.797Z,0.10
2018-02-10T02:13:05.285Z,0.10
2018-02-10T02:15:33.747Z,0.10
2018-02-10T02:18:02.239Z,0.10
2018-02-10T02:20:30.388Z,0.10
2018-02-10T02:22:58.886Z,0.10
2018-02-10T02:25:27.381Z,0.10
2018-02-10T02:27:55.834Z,0.10
2018-02-10T02:30:25.101Z,0.00
2018-02-10T02:32:53.570Z,0.00
2018-02-10T02:35:22.055Z,0.00
2018-02-10T02:37:50.549Z,0.00
2018-02-10T02:40:19.091Z,0.00
2018-02-10T02:42:47.579Z,0.00
2018-02-10T02:45:16.033Z,0.00
2018-02-10T02:47:44.526Z,0.00
2018-02-10T02:50:13.021Z,0.00
2018-02-10T02:52:41.471Z,0.10
2018-02-10T02:55:09.964Z,0.00
2018-02-10T02:57:38.428Z,0.10
2018-02-10T03:00:07.699Z,0.00
2018-02-10T03:02:36.968Z,0.00
2018-02-10T03:05:05.430Z,0.00
2018-02-10T03:07:33.921Z,-0.10
2018-02-10T03:10:02.390Z,0.00
2018-02-10T03:12:30.913Z,0.00
2018-02-10T03:14:59.408Z,-0.10
2018-02-10T03:17:27.862Z,0.00
2018-02-10T03:19:56.353Z,0.00
2018-02-10T03:22:24.811Z,-0.10
2018-02-10T03:24:53.312Z,-0.10
2018-02-10T03:27:21.809Z,-0.10
2018-02-10T03:29:50.271Z,-0.10
2018-02-10T03:32:18.773Z,-0.10
2018-02-10T03:34:47.238Z,-0.10
2018-02-10T03:37:15.745Z,0.00
2018-02-10T03:39:44.263Z,0.00
2018-02-10T03:42:12.129Z,0.00
2018-02-10T03:44:40.628Z,-0.10
2018-02-10T03:47:09.086Z,-0.10
2018-02-10T03:49:37.574Z,-0.20
2018-02-10T03:52:06.062Z,-0.30
2018-02-10T03:54:34.534Z,-0.40
2018-02-10T03:57:03.235Z,-0.50
2018-02-10T03:59:31.728Z,-0.60
2018-02-10T04:02:00.226Z,-0.60
2018-02-10T04:04:28.719Z,-0.70
2018-02-10T04:06:57.184Z,-0.70
2018-02-10T04:09:25.672Z,-0.80
2018-02-10T04:11:54.168Z,-0.80
2018-02-10T04:14:22.659Z,-0.80
2018-02-10T04:16:51.930Z,-0.70
2018-02-10T04:19:20.394Z,-0.80
2018-02-10T04:21:48.881Z,-0.70
2018-02-10T04:24:17.344Z,-0.70
2018-02-10T04:26:45.852Z,-0.70
2018-02-10T04:29:14.350Z,-0.60
2018-02-10T04:31:42.830Z,-0.70
2018-02-10T04:34:12.101Z,-0.60
2018-02-10T04:36:40.562Z,-0.60
2018-02-10T04:39:09.064Z,-0.70
2018-02-10T04:41:37.571Z,-0.70
2018-02-10T04:44:06.039Z,-0.70
2018-02-10T04:46:34.539Z,-0.60
2018-02-10T04:49:03.774Z,-0.50
2018-02-10T04:51:33.032Z,-0.50
2018-02-10T04:54:01.529Z,-0.50
2018-02-10T04:56:30.006Z,-0.50
2018-02-10T04:58:59.266Z,-0.60
2018-02-10T05:01:27.729Z,-0.60
2018-02-10T05:03:56.249Z,-0.60
2018-02-10T05:06:24.737Z,-0.60
2018-02-10T05:08:53.209Z,-0.60
2018-02-10T05:11:21.710Z,-0.60
2018-02-10T05:13:50.950Z,-0.70
2018-02-10T05:16:19.449Z,-0.70
2018-02-10T05:18:47.956Z,-0.70
2018-02-10T05:21:17.194Z,-0.70
2018-02-10T05:23:45.691Z,-0.70
2018-02-10T05:26:14.152Z,-0.70
2018-02-10T05:28:42.653Z,-0.70
2018-02-10T05:31:11.156Z,-0.60
2018-02-10T05:33:39.620Z,-0.60
2018-02-10T05:36:08.100Z,-0.60
2018-02-10T05:38:36.558Z,-0.70
2018-02-10T05:41:05.048Z,-0.70
2018-02-10T05:43:33.538Z,-0.70
2018-02-10T05:46:01.997Z,-0.70
2018-02-10T05:48:30.489Z,-0.70
2018-02-10T05:50:58.948Z,-0.60
2018-02-10T05:53:28.206Z,-0.60
2018-02-10T05:55:56.706Z,-0.70
2018-02-10T05:58:25.191Z,-0.60
2018-02-10T06:00:53.685Z,-0.70
2018-02-10T06:03:22.918Z,-0.70
2018-02-10T06:05:51.421Z,-0.70
2018-02-10T06:08:19.911Z,-0.70
2018-02-10T06:10:48.377Z,-0.80
2018-02-10T06:13:16.866Z,-0.90
2018-02-10T06:15:45.325Z,-0.90
2018-02-10T06:18:13.815Z,-0.90
2018-02-10T06:20:42.348Z,-0.90
2018-02-10T06:23:11.310Z,-0.90
2018-02-10T06:25:39.846Z,-0.90
2018-02-10T06:28:08.341Z,-0.90
2018-02-10T06:30:36.878Z,-0.90
2018-02-10T06:33:05.418Z,-1.00
2018-02-10T06:35:33.935Z,-1.00
2018-02-10T06:38:02.484Z,-0.90
2018-02-10T06:40:31.038Z,-0.80
2018-02-10T06:42:59.586Z,-0.80
2018-02-10T06:45:28.919Z,-0.70
2018-02-10T06:47:57.468Z,-0.70
2018-02-10T06:50:26.797Z,-0.60
2018-02-10T06:52:55.319Z,-0.60
2018-02-10T06:55:23.862Z,-0.60
2018-02-10T06:57:52.414Z,-0.60
2018-02-10T07:00:21.724Z,-0.50
2018-02-10T07:02:51.072Z,-0.50
2018-02-10T07:05:19.605Z,-0.50
2018-02-10T07:07:48.126Z,-0.50
2018-02-10T07:10:16.711Z,-0.40
2018-02-10T07:12:45.205Z,-0.40
2018-02-10T07:15:13.749Z,-0.40
2018-02-10T07:17:42.285Z,-0.30
2018-02-10T07:20:10.858Z,-0.30
2018-02-10T07:22:39.378Z,-0.30
2018-02-10T07:25:08.115Z,-0.20
2018-02-10T07:27:40.133Z,-0.20
2018-02-10T07:30:09.218Z,-0.10
2018-02-10T07:32:38.550Z,0.00
2018-02-10T07:35:07.037Z,0.00
2018-02-10T07:37:35.565Z,0.00
2018-02-10T07:40:04.144Z,0.10
2018-02-10T07:42:32.648Z,0.20
2018-02-10T07:45:01.212Z,0.30
2018-02-10T07:47:29.749Z,0.30
2018-02-10T07:49:58.275Z,0.40
2018-02-10T07:52:26.849Z,0.40
2018-02-10T07:54:55.425Z,0.50
2018-02-10T07:57:23.936Z,0.50
2018-02-10T07:59:52.498Z,0.50
2018-02-10T08:02:21.052Z,0.50
2018-02-10T08:04:49.587Z,0.50
2018-02-10T08:07:18.919Z,0.60
2018-02-10T08:09:47.544Z,0.60
2018-02-10T08:12:16.276Z,0.70
2018-02-10T08:14:44.820Z,0.70
2018-02-10T08:17:13.370Z,0.70
2018-02-10T08:19:41.906Z,0.80
2018-02-10T08:22:10.465Z,0.90
2018-02-10T08:24:39.043Z,0.90
2018-02-10T08:27:07.622Z,1.00
2018-02-10T08:29:36.174Z,1.10
2018-02-10T08:32:04.715Z,1.20
2018-02-10T08:34:35.210Z,1.20
2018-02-10T08:37:03.818Z,1.30
2018-02-10T08:39:32.365Z,1.30
2018-02-10T08:42:00.914Z,1.30
2018-02-10T08:44:29.730Z,1.30
2018-02-10T08:46:58.275Z,1.40
2018-02-10T08:49:26.837Z,1.50
2018-02-10T08:51:55.431Z,1.60
2018-02-10T08:54:24.743Z,1.80
2018-02-10T08:56:54.046Z,1.90
2018-02-10T08:59:22.586Z,1.90
2018-02-10T09:01:51.105Z,2.00
2018-02-10T09:04:20.404Z,2.10
2018-02-10T09:06:48.943Z,2.00
2018-02-10T09:09:17.495Z,2.10
2018-02-10T09:11:46.031Z,2.10
2018-02-10T09:14:14.573Z,2.10
2018-02-10T09:16:43.078Z,2.00
2018-02-10T09:19:11.653Z,2.10
2018-02-10T09:21:40.156Z,2.10
2018-02-10T09:24:08.566Z,2.10
2018-02-10T09:26:37.109Z,2.20
2018-02-10T09:29:05.656Z,2.30
2018-02-10T09:31:34.238Z,2.30
2018-02-10T09:34:02.742Z,2.40
2018-02-10T09:36:31.304Z,2.50
2018-02-10T09:38:59.870Z,2.60
2018-02-10T09:41:28.433Z,2.60
2018-02-10T09:43:57.753Z,2.70
2018-02-10T09:46:26.330Z,2.70
2018-02-10T09:48:54.892Z,2.80
2018-02-10T09:51:24.200Z,2.80
2018-02-10T09:53:53.533Z,2.80
2018-02-10T09:56:22.084Z,2.80
2018-02-10T09:58:51.401Z,2.80
2018-02-10T10:01:19.960Z,2.80
2018-02-10T10:03:48.504Z,2.80
2018-02-10T10:06:17.047Z,2.80
2018-02-10T10:08:45.581Z,2.70
2018-02-10T10:11:14.120Z,2.80
2018-02-10T10:13:42.658Z,2.90
2018-02-10T10:16:11.184Z,2.90
2018-02-10T10:18:39.750Z,2.90
2018-02-10T10:21:08.178Z,2.90
2018-02-10T10:23:36.742Z,3.00
2018-02-10T10:26:04.987Z,3.00
2018-02-10T10:28:33.571Z,2.90
2018-02-10T10:31:02.202Z,2.90
2018-02-10T10:33:30.714Z,2.90
2018-02-10T10:35:59.273Z,2.80
2018-02-10T10:38:28.559Z,2.80
2018-02-10T10:40:57.073Z,2.60
2018-02-10T10:43:25.618Z,2.70
2018-02-10T10:45:54.132Z,2.60
2018-02-10T10:48:22.763Z,2.50
2018-02-10T10:50:51.301Z,2.60
2018-02-10T10:53:19.812Z,2.60
2018-02-10T10:55:49.125Z,2.60
2018-02-10T10:58:17.725Z,2.50
2018-02-10T11:00:46.255Z,2.60
2018-02-10T11:03:14.795Z,2.70
2018-02-10T11:05:43.398Z,2.70
2018-02-10T11:08:12.939Z,2.70
2018-02-10T11:10:41.474Z,2.60
2018-02-10T11:13:10.052Z,2.60
2018-02-10T11:15:38.665Z,2.60
2018-02-10T11:18:07.195Z,2.70
2018-02-10T11:20:35.673Z,2.60
2018-02-10T11:23:04.230Z,2.60
2018-02-10T11:25:32.742Z,2.50
2018-02-10T11:28:01.287Z,2.60
2018-02-10T11:30:29.813Z,2.60
2018-02-10T11:32:58.360Z,2.60
2018-02-10T11:35:27.642Z,2.60
2018-02-10T11:37:58.220Z,2.60
2018-02-10T11:40:26.778Z,2.60
2018-02-10T11:42:55.306Z,2.60
2018-02-10T11:45:23.892Z,2.70
2018-02-10T11:47:52.383Z,2.70
2018-02-10T11:50:20.917Z,2.80
2018-02-10T11:52:49.459Z,2.80
2018-02-10T11:55:18.022Z,2.80
2018-02-10T11:57:46.575Z,2.80
2018-02-10T12:00:15.129Z,2.70
2018-02-10T12:02:44.432Z,2.80
2018-02-10T12:05:12.938Z,2.80
2018-02-10T12:07:41.594Z,2.80
2018-02-10T12:10:10.901Z,3.00
2018-02-10T12:12:39.482Z,3.00
2018-02-10T12:15:07.985Z,3.00
2018-02-10T12:17:36.514Z,3.00
2018-02-10T12:20:05.137Z,3.00
2018-02-10T12:22:33.846Z,2.90
2018-02-10T12:25:02.614Z,2.90
2018-02-10T12:27:31.909Z,2.90
2018-02-10T12:30:01.201Z,3.00
2018-02-10T12:32:30.534Z,3.20
2018-02-10T12:34:59.058Z,3.20
2018-02-10T12:37:27.602Z,3.30
2018-02-10T12:39:56.167Z,3.20
2018-02-10T12:42:24.733Z,3.10
2018-02-10T12:44:53.265Z,3.10
2018-02-10T12:47:22.697Z,3.00
2018-02-10T12:49:51.243Z,3.00
2018-02-10T12:52:19.808Z,2.90
2018-02-10T12:54:48.369Z,2.90
2018-02-10T12:57:17.710Z,2.80
2018-02-10T12:59:46.202Z,2.80
2018-02-10T13:02:14.784Z,2.80
2018-02-10T13:04:43.473Z,2.80
2018-02-10T13:07:12.033Z,2.80
2018-02-10T13:09:40.618Z,2.80
2018-02-10T13:12:09.276Z,2.80
2018-02-10T13:14:37.854Z,2.90
2018-02-10T13:17:06.396Z,2.90
2018-02-10T13:19:34.942Z,3.00
2018-02-10T13:22:03.505Z,3.00
2018-02-10T13:24:32.842Z,3.10
2018-02-10T13:27:01.373Z,3.00
2018-02-10T13:29:30.724Z,3.00
2018-02-10T13:31:59.251Z,3.00
2018-02-10T13:34:28.548Z,3.00
2018-02-10T13:36:57.130Z,3.00
2018-02-10T13:39:25.634Z,3.00
2018-02-10T13:41:55.976Z,2.90
2018-02-10T13:44:24.549Z,2.80
2018-02-10T13:46:53.074Z,2.80
2018-02-10T13:49:21.611Z,2.80
2018-02-10T13:51:50.167Z,2.80
2018-02-10T13:54:18.751Z,2.80
2018-02-10T13:56:47.311Z,2.80
2018-02-10T13:59:15.878Z,2.80
2018-02-10T14:01:44.673Z,2.80
2018-02-10T14:04:13.218Z,2.80
2018-02-10T14:06:41.773Z,2.80
2018-02-10T14:09:10.323Z,2.70
2018-02-10T14:11:38.865Z,2.70
2018-02-10T14:14:07.371Z,2.70
2018-02-10T14:16:36.016Z,2.70
2018-02-10T14:19:04.652Z,2.70
2018-02-10T14:21:34.172Z,2.70
2018-02-10T14:24:02.776Z,2.70
2018-02-10T14:26:31.322Z,2.70
2018-02-10T14:28:59.866Z,2.70
2018-02-10T14:31:28.423Z,2.70
2018-02-10T14:33:56.980Z,2.70
2018-02-10T14:36:25.558Z,2.70
2018-02-10T14:38:54.109Z,2.60
2018-02-10T14:41:22.625Z,2.70
2018-02-10T14:43:51.155Z,2.70
2018-02-10T14:46:19.662Z,2.70
2018-02-10T14:48:48.249Z,2.60
2018-02-10T14:51:16.790Z,2.60
2018-02-10T14:53:46.103Z,2.60
2018-02-10T14:56:14.658Z,2.60
2018-02-10T14:58:43.228Z,2.60
2018-02-10T15:01:11.818Z,2.60
2018-02-10T15:03:40.434Z,2.60
2018-02-10T15:06:09.860Z,2.50
2018-02-10T15:08:38.412Z,2.50
2018-02-10T15:11:06.975Z,2.50
2018-02-10T15:13:35.555Z,2.50
2018-02-10T15:16:04.171Z,2.50
2018-02-10T15:18:33.539Z,2.50
2018-02-10T15:21:02.889Z,2.50
2018-02-10T15:23:31.274Z,2.50
2018-02-10T15:25:59.926Z,2.50
2018-02-10T15:28:29.247Z,2.50
2018-02-10T15:31:09.574Z,2.50
2018-02-10T15:33:49.207Z,2.50
2018-02-10T15:36:17.715Z,2.40
2018-02-10T15:38:46.225Z,2.50
2018-02-10T15:41:14.765Z,2.50
2018-02-10T15:43:43.357Z,2.40
2018-02-10T15:46:11.928Z,2.40
2018-02-10T15:48:40.493Z,2.40
2018-02-10T15:51:09.112Z,2.40
2018-02-10T15:53:38.817Z,2.40
2018-02-10T15:56:08.150Z,2.40
2018-02-10T15:58:36.655Z,2.30
2018-02-10T16:01:05.199Z,2.30
2018-02-10T16:03:33.786Z,2.40
2018-02-10T16:06:02.206Z,2.40
2018-02-10T16:08:30.746Z,2.30
2018-02-10T16:10:59.303Z,2.30
2018-02-10T16:13:28.510Z,2.30
2018-02-10T16:15:57.794Z,2.30
2018-02-10T16:18:26.336Z,2.30
2018-02-10T16:20:54.843Z,2.30
2018-02-10T16:23:23.373Z,2.30
2018-02-10T16:25:51.887Z,2.30
2018-02-10T16:28:20.487Z,2.20
2018-02-10T16:30:48.982Z,2.30
2018-02-10T16:33:17.538Z,2.20
2018-02-10T16:35:46.058Z,2.20
2018-02-10T16:38:14.607Z,2.20
2018-02-10T16:40:43.248Z,2.20
2018-02-10T16:43:11.795Z,2.20
2018-02-10T16:45:40.390Z,2.20
2018-02-10T16:48:08.906Z,2.20
2018-02-10T16:50:37.490Z,2.20
2018-02-10T16:53:05.976Z,2.20
2018-02-10T16:55:34.530Z,2.20
2018-02-10T16:58:03.161Z,2.20
2018-02-10T17:00:31.685Z,2.20
2018-02-10T17:03:00.292Z,2.20
2018-02-10T17:05:28.848Z,2.20
2018-02-10T17:07:57.441Z,2.10
2018-02-10T17:10:26.927Z,2.10
2018-02-10T17:12:56.275Z,2.10
2018-02-10T17:15:24.830Z,2.10
2018-02-10T17:17:54.285Z,2.20
2018-02-10T17:20:22.837Z,2.10
2018-02-10T17:22:51.370Z,2.20
2018-02-10T17:25:19.936Z,2.20
2018-02-10T17:27:48.482Z,2.20
2018-02-10T17:30:17.021Z,2.10
2018-02-10T17:32:45.559Z,2.20
2018-02-10T17:35:14.114Z,2.10
2018-02-10T17:37:43.419Z,2.20
2018-02-10T17:40:12.742Z,2.20
2018-02-10T17:42:41.282Z,2.20
2018-02-10T17:45:11.829Z,2.20
2018-02-10T17:47:40.356Z,2.20
2018-02-10T17:50:08.906Z,2.20
2018-02-10T17:52:37.453Z,2.20
2018-02-10T17:55:06.018Z,2.20
2018-02-10T17:57:34.514Z,2.20
2018-02-10T18:00:03.085Z,2.20
2018-02-10T18:02:31.650Z,2.20
2018-02-10T18:05:00.170Z,2.20
2018-02-10T18:07:28.751Z,2.20
2018-02-10T18:09:57.317Z,2.20
2018-02-10T18:12:25.867Z,2.30
2018-02-10T18:14:54.390Z,2.20
2018-02-10T18:17:22.947Z,2.30
2018-02-10T18:19:51.472Z,2.30
2018-02-10T18:22:20.011Z,2.20
2018-02-10T18:24:48.593Z,2.30
2018-02-10T18:27:17.178Z,2.20
2018-02-10T18:29:45.938Z,2.30
2018-02-10T18:32:14.492Z,2.30
2018-02-10T18:34:43.789Z,2.30
2018-02-10T18:37:12.339Z,2.30
2018-02-10T18:39:40.922Z,2.30
2018-02-10T18:42:09.558Z,2.30
2018-02-10T18:44:38.099Z,2.30
2018-02-10T18:47:06.646Z,2.30
2018-02-10T18:49:35.185Z,2.30
2018-02-10T18:52:03.839Z,2.30
2018-02-10T18:54:32.368Z,2.30
2018-02-10T18:57:01.718Z,2.30
2018-02-10T18:59:30.231Z,2.30
2018-02-10T19:01:58.787Z,2.30
2018-02-10T19:04:27.340Z,2.30
2018-02-10T19:06:55.874Z,2.30
2018-02-10T19:09:24.423Z,2.30
2018-02-10T19:11:53.015Z,2.30
2018-02-10T19:14:21.421Z,2.30
2018-02-10T19:16:49.965Z,2.40
2018-02-10T19:19:18.529Z,2.40
2018-02-10T19:21:49.123Z,2.30
2018-02-10T19:24:17.676Z,2.30
2018-02-10T19:26:46.202Z,2.40
2018-02-10T19:29:15.564Z,2.30
2018-02-10T19:31:44.246Z,2.30
2018-02-10T19:34:13.861Z,2.30
2018-02-10T19:36:42.495Z,2.30
2018-02-10T19:39:11.155Z,2.30
2018-02-10T19:41:39.825Z,2.30
2018-02-10T19:44:08.353Z,2.30
2018-02-10T19:46:37.672Z,2.30
2018-02-10T19:49:06.075Z,2.30
2018-02-10T19:51:34.638Z,2.30
2018-02-10T19:54:03.224Z,2.30
2018-02-10T19:56:31.783Z,2.30
2018-02-10T19:59:00.360Z,2.40
2018-02-10T20:01:28.938Z,2.40
2018-02-10T20:03:57.434Z,2.30
2018-02-10T20:06:26.017Z,2.40
2018-02-10T20:08:54.634Z,2.40
2018-02-10T20:11:23.180Z,2.30
2018-02-10T20:13:51.697Z,2.30
2018-02-10T20:16:21.006Z,2.40
2018-02-10T20:18:49.562Z,2.30
2018-02-10T20:21:18.108Z,2.40
2018-02-10T20:23:46.700Z,2.40
2018-02-10T20:26:15.339Z,2.30
2018-02-10T20:28:44.058Z,2.30
2018-02-10T20:31:12.622Z,2.30
2018-02-10T20:33:41.194Z,2.40
2018-02-10T20:36:09.709Z,2.30
2018-02-10T20:38:38.243Z,2.30
2018-02-10T20:41:06.792Z,2.30
2018-02-10T20:43:35.377Z,2.30
2018-02-10T20:46:03.940Z,2.30
2018-02-10T20:48:32.475Z,2.40
2018-02-10T20:51:01.100Z,2.40
2018-02-10T20:53:29.586Z,2.40
2018-02-10T20:55:58.150Z,2.40
2018-02-10T20:58:26.759Z,2.30
2018-02-10T21:00:55.310Z,2.30
2018-02-10T21:03:23.821Z,2.30
2018-02-10T21:05:52.403Z,2.40
2018-02-10T21:08:20.950Z,2.30
2018-02-10T21:10:49.499Z,2.40
2018-02-10T21:13:18.808Z,2.30
2018-02-10T21:15:47.338Z,2.30
2018-02-10T21:18:15.910Z,2.30
2018-02-10T21:20:44.494Z,2.40
2018-02-10T21:23:13.028Z,2.40
2018-02-10T21:25:42.326Z,2.40
2018-02-10T21:28:11.659Z,2.40
2018-02-10T21:30:40.226Z,2.40
2018-02-10T21:33:09.518Z,2.40
2018-02-10T21:35:38.818Z,2.40
2018-02-10T21:38:07.957Z,2.40
2018-02-10T21:40:36.446Z,2.40
2018-02-10T21:43:05.003Z,2.40
2018-02-10T21:45:33.507Z,2.40
2018-02-10T21:48:02.096Z,2.40
2018-02-10T21:50:30.629Z,2.40
2018-02-10T21:52:59.958Z,2.40
2018-02-10T21:55:28.505Z,2.40
2018-02-10T21:57:57.814Z,2.40
2018-02-10T22:00:27.418Z,2.40
2018-02-10T22:02:55.915Z,2.40
2018-02-10T22:05:24.475Z,2.40
2018-02-10T22:07:53.055Z,2.40
2018-02-10T22:10:22.511Z,2.40
2018-02-10T22:12:51.081Z,2.40
2018-02-10T22:15:19.654Z,2.40
2018-02-10T22:17:48.216Z,2.40
2018-02-10T22:20:17.514Z,2.40
2018-02-10T22:22:46.092Z,2.40
2018-02-10T22:25:14.586Z,2.40
2018-02-10T22:27:43.152Z,2.40
2018-02-10T22:30:11.658Z,2.40
2018-02-10T22:32:40.220Z,2.30
2018-02-10T22:35:08.727Z,2.30
2018-02-10T22:37:38.076Z,2.40
2018-02-10T22:40:06.651Z,2.30
2018-02-10T22:42:35.223Z,2.30
2018-02-10T22:45:03.719Z,2.30
2018-02-10T22:47:32.330Z,2.30
2018-02-10T22:50:00.866Z,2.30
2018-02-10T22:52:29.450Z,2.30
2018-02-10T22:54:57.995Z,2.30
2018-02-10T22:57:27.313Z,2.30
2018-02-10T22:59:55.863Z,2.30
2018-02-10T23:02:24.369Z,2.30
2018-02-10T23:04:53.679Z,2.30
2018-02-10T23:07:22.983Z,2.30
2018-02-10T23:09:52.291Z,2.30
2018-02-10T23:12:20.800Z,2.30
2018-02-10T23:14:49.349Z,2.30
2018-02-10T23:17:18.634Z,2.30
2018-02-10T23:19:47.174Z,2.20
2018-02-10T23:22:15.689Z,2.30
2018-02-10T23:24:44.286Z,2.30
2018-02-10T23:27:13.562Z,2.20
2018-02-10T23:29:42.120Z,2.20
2018-02-10T23:32:10.672Z,2.20
2018-02-10T23:34:39.217Z,2.10
2018-02-10T23:37:07.757Z,2.10
2018-02-10T23:39:36.286Z,2.00
2018-02-10T23:42:04.852Z,1.80
2018-02-10T23:44:33.406Z,1.80
2018-02-10T23:47:01.990Z,1.70
2018-02-10T23:49:30.485Z,1.60
2018-02-10T23:51:59.018Z,1.60
2018-02-10T23:54:28.303Z,1.60
2018-02-10T23:56:56.925Z,1.60
2018-02-10T23:59:25.504Z,1.70
